Аэропорт: Гродно. Гродно

ICAO: UMMG

METAR:
2024-05-18 16:30:00
UMMG 181630Z 15003MPS 9999 SCT046 24/09 Q1014 NOSIG
TAF:
2024-05-18 14:00:00
TAF UMMG 181400Z 1815/1824 14003G08MPS 9999 BKN030 
  TEMPO 1815/1824 VRB02MPS